createdAt,value
2018-11-01T00:00:20.537Z,31.10
2018-11-01T00:02:49.682Z,45.83
2018-11-01T00:05:18.698Z,30.87
2018-11-01T00:07:47.749Z,32.83
2018-11-01T00:10:16.645Z,31.60
2018-11-01T00:12:45.739Z,35.57
2018-11-01T00:15:15.867Z,36.57
2018-11-01T00:17:44.838Z,29.70
2018-11-01T00:20:14.535Z,36.83
2018-11-01T00:22:44.159Z,41.40
2018-11-01T00:25:13.942Z,43.43
2018-11-01T00:27:43.434Z,37.07
2018-11-01T00:30:12.431Z,39.43
2018-11-01T00:32:41.511Z,33.60
2018-11-01T00:35:10.487Z,38.05
2018-11-01T00:37:39.407Z,34.50
2018-11-01T00:40:11.622Z,33.67
2018-11-01T00:42:40.513Z,32.63
2018-11-01T00:45:10.230Z,36.17
2018-11-01T00:47:40.160Z,33.93
2018-11-01T00:50:11.849Z,35.93
2018-11-01T00:52:41.474Z,32.47
2018-11-01T00:55:11.501Z,38.90
2018-11-01T00:57:41.372Z,41.40
2018-11-01T01:00:13.734Z,47.97
2018-11-01T01:02:42.661Z,50.57
2018-11-01T01:05:12.353Z,46.00
2018-11-01T01:07:41.415Z,42.83
2018-11-01T01:10:14.212Z,40.40
2018-11-01T01:12:44.343Z,40.40
2018-11-01T01:15:13.303Z,41.93
2018-11-01T01:17:42.134Z,37.80
2018-11-01T01:20:14.757Z,37.20
2018-11-01T01:22:44.979Z,37.23
2018-11-01T01:25:16.035Z,32.63
2018-11-01T01:27:44.968Z,40.03
2018-11-01T01:30:15.967Z,35.77
2018-11-01T01:32:45.443Z,40.33
2018-11-01T01:35:15.226Z,33.13
2018-11-01T01:37:44.494Z,33.23
2018-11-01T01:40:13.444Z,33.97
2018-11-01T01:42:47.460Z,33.83
2018-11-01T01:45:16.578Z,33.20
2018-11-01T01:47:45.489Z,35.90
2018-11-01T01:50:15.559Z,39.20
2018-11-01T01:52:45.226Z,37.73
2018-11-01T01:55:14.194Z,38.30
2018-11-01T01:57:43.131Z,38.37
2018-11-01T02:00:19.942Z,33.50
2018-11-01T02:02:50.258Z,33.47
2018-11-01T02:05:19.216Z,36.13
2018-11-01T02:07:48.141Z,43.57
2018-11-01T02:10:17.914Z,40.27
2018-11-01T02:12:46.828Z,39.73
2018-11-01T02:15:17.345Z,35.43
2018-11-01T02:17:46.437Z,38.43
2018-11-01T02:20:16.512Z,35.63
2018-11-01T02:22:45.764Z,36.53
2018-11-01T02:25:14.917Z,35.50
2018-11-01T02:27:48.871Z,32.20
2018-11-01T02:30:18.523Z,50.97
2018-11-01T02:32:47.662Z,48.87
2018-11-01T02:35:17.708Z,43.30
2018-11-01T02:37:47.067Z,45.47
2018-11-01T02:40:16.552Z,45.07
2018-11-01T02:42:45.442Z,54.10
2018-11-01T02:45:15.270Z,51.03
2018-11-01T02:47:44.265Z,54.20
2018-11-01T02:50:13.911Z,55.83
2018-11-01T02:52:42.965Z,64.43
2018-11-01T02:55:11.910Z,59.10
2018-11-01T02:57:40.816Z,60.87
2018-11-01T03:00:11.362Z,65.17
2018-11-01T03:02:40.302Z,63.57
2018-11-01T03:05:10.179Z,63.43
2018-11-01T03:07:41.561Z,64.97
2018-11-01T03:10:12.350Z,65.20
2018-11-01T03:12:41.805Z,71.07
2018-11-01T03:15:12.113Z,78.73
2018-11-01T03:17:41.046Z,75.73
2018-11-01T03:20:10.690Z,73.40
2018-11-01T03:22:39.795Z,77.33
2018-11-01T03:25:09.466Z,78.20
2018-11-01T03:27:38.827Z,80.73
2018-11-01T03:30:08.507Z,76.03
2018-11-01T03:32:37.858Z,76.27
2018-11-01T03:35:07.569Z,65.33
2018-11-01T03:37:36.514Z,76.50
2018-11-01T03:40:06.459Z,72.23
2018-11-01T03:42:35.342Z,77.80
2018-11-01T03:45:04.587Z,77.90
2018-11-01T03:47:33.439Z,74.77
2018-11-01T03:50:02.351Z,76.90
2018-11-01T03:52:31.255Z,75.77
2018-11-01T03:55:00.232Z,74.13
2018-11-01T03:57:29.224Z,72.77
2018-11-01T03:59:58.207Z,76.43
2018-11-01T04:02:27.172Z,77.47
2018-11-01T04:04:56.074Z,74.63
2018-11-01T04:07:25.000Z,69.07
2018-11-01T04:09:53.901Z,66.77
2018-11-01T04:12:22.766Z,69.43
2018-11-01T04:14:51.804Z,66.70
2018-11-01T04:17:20.687Z,66.60
2018-11-01T04:19:49.605Z,64.60
2018-11-01T04:22:19.898Z,64.67
2018-11-01T04:24:48.817Z,66.17
2018-11-01T04:27:17.656Z,61.60
2018-11-01T04:29:46.582Z,67.33
2018-11-01T04:32:15.491Z,67.87
2018-11-01T04:34:44.422Z,70.83
2018-11-01T04:37:13.369Z,71.30
2018-11-01T04:39:42.280Z,66.00
2018-11-01T04:42:11.233Z,64.63
2018-11-01T04:44:40.235Z,63.47
2018-11-01T04:47:09.059Z,56.50
2018-11-01T04:49:38.001Z,62.63
2018-11-01T04:52:07.361Z,57.63
2018-11-01T04:54:36.254Z,66.57
2018-11-01T04:57:05.246Z,60.37
2018-11-01T04:59:34.206Z,71.23
2018-11-01T05:02:03.119Z,67.50
2018-11-01T05:04:32.001Z,60.07
2018-11-01T05:07:00.939Z,68.27
2018-11-01T05:09:29.762Z,65.10
2018-11-01T05:11:58.577Z,66.03
2018-11-01T05:14:27.470Z,60.60
2018-11-01T05:16:56.343Z,63.00
2018-11-01T05:19:25.267Z,63.43
2018-11-01T05:21:54.327Z,69.50
2018-11-01T05:24:23.300Z,66.80
2018-11-01T05:26:52.170Z,65.23
2018-11-01T05:29:21.050Z,59.67
2018-11-01T05:31:49.971Z,60.63
2018-11-01T05:34:18.918Z,61.20
2018-11-01T05:36:47.910Z,59.47
2018-11-01T05:39:16.904Z,67.37
2018-11-01T05:41:45.915Z,57.80
2018-11-01T05:44:14.996Z,60.87
2018-11-01T05:46:43.939Z,57.27
2018-11-01T05:49:12.887Z,57.70
2018-11-01T05:51:41.799Z,56.70
2018-11-01T05:54:10.692Z,55.37
2018-11-01T05:56:41.039Z,58.30
2018-11-01T05:59:09.991Z,59.00
2018-11-01T06:01:42.934Z,59.20
2018-11-01T06:04:11.770Z,55.40
2018-11-01T06:06:40.673Z,58.60
2018-11-01T06:09:10.529Z,55.10
2018-11-01T06:11:39.370Z,56.17
2018-11-01T06:14:08.340Z,52.43
2018-11-01T06:16:37.283Z,56.10
2018-11-01T06:19:06.431Z,61.10
2018-11-01T06:21:35.350Z,59.27
2018-11-01T06:24:04.356Z,61.90
2018-11-01T06:26:33.240Z,56.20
2018-11-01T06:29:02.314Z,57.57
2018-11-01T06:31:31.178Z,58.47
2018-11-01T06:34:00.027Z,63.83
2018-11-01T06:36:28.978Z,72.73
2018-11-01T06:38:58.032Z,75.67
2018-11-01T06:41:26.947Z,74.53
2018-11-01T06:43:55.847Z,63.50
2018-11-01T06:46:24.732Z,57.07
2018-11-01T06:48:53.665Z,52.20
2018-11-01T06:51:22.698Z,50.87
2018-11-01T06:53:51.579Z,50.92
2018-11-01T06:56:20.572Z,49.33
2018-11-01T06:58:49.713Z,53.63
2018-11-01T07:01:18.663Z,54.17
2018-11-01T07:03:47.595Z,48.37
2018-11-01T07:06:16.602Z,54.37
2018-11-01T07:08:45.559Z,58.63
2018-11-01T07:11:14.505Z,51.43
2018-11-01T07:13:43.411Z,53.43
2018-11-01T07:16:12.367Z,63.67
2018-11-01T07:18:41.298Z,54.47
2018-11-01T07:21:10.191Z,60.70
2018-11-01T07:23:39.083Z,47.73
2018-11-01T07:26:08.380Z,50.23
2018-11-01T07:28:37.184Z,47.57
2018-11-01T07:31:06.133Z,48.17
2018-11-01T07:33:36.362Z,49.17
2018-11-01T07:36:05.323Z,48.37
2018-11-01T07:38:34.239Z,43.10
2018-11-01T07:41:03.146Z,44.90
2018-11-01T07:43:32.082Z,39.53
2018-11-01T07:46:00.995Z,41.47
2018-11-01T07:48:30.000Z,42.33
2018-11-01T07:50:58.929Z,44.73
2018-11-01T07:53:27.830Z,38.07
2018-11-01T07:55:56.964Z,42.00
2018-11-01T07:58:26.025Z,48.67
2018-11-01T08:00:54.930Z,45.70
2018-11-01T08:03:23.953Z,43.50
2018-11-01T08:05:53.026Z,39.27
2018-11-01T08:08:21.879Z,49.27
2018-11-01T08:10:50.815Z,44.13
2018-11-01T08:13:20.150Z,38.23
2018-11-01T08:15:49.102Z,40.00
2018-11-01T08:18:18.118Z,41.20
2018-11-01T08:20:47.207Z,37.07
2018-11-01T08:23:16.117Z,31.90
2018-11-01T08:25:45.178Z,31.13
2018-11-01T08:28:16.939Z,37.77
2018-11-01T08:30:45.914Z,34.33
2018-11-01T08:33:14.874Z,32.57
2018-11-01T08:35:45.103Z,33.33
2018-11-01T08:38:14.037Z,33.23
2018-11-01T08:40:42.906Z,34.23
2018-11-01T08:43:11.871Z,43.73
2018-11-01T08:45:40.730Z,34.93
2018-11-01T08:48:09.589Z,38.77
2018-11-01T08:50:38.506Z,41.43
2018-11-01T08:53:07.386Z,39.13
2018-11-01T08:55:36.325Z,43.37
2018-11-01T08:58:07.182Z,42.73
2018-11-01T09:00:36.120Z,40.90
2018-11-01T09:03:05.101Z,34.90
2018-11-01T09:05:35.436Z,32.97
2018-11-01T09:08:04.440Z,39.90
2018-11-01T09:10:34.747Z,38.47
2018-11-01T09:13:03.637Z,34.80
2018-11-01T09:15:32.600Z,38.87
2018-11-01T09:18:04.209Z,36.53
2018-11-01T09:20:33.124Z,36.77
2018-11-01T09:23:02.136Z,35.80
2018-11-01T09:25:31.095Z,33.97
2018-11-01T09:28:00.202Z,35.97
2018-11-01T09:30:29.369Z,35.23
2018-11-01T09:32:58.497Z,32.43
2018-11-01T09:35:27.415Z,36.50
2018-11-01T09:37:56.319Z,38.20
2018-11-01T09:40:28.219Z,39.83
2018-11-01T09:42:57.166Z,38.53
2018-11-01T09:45:26.080Z,41.60
2018-11-01T09:47:55.056Z,39.53
2018-11-01T09:50:23.995Z,38.90
2018-11-01T09:52:53.015Z,48.17
2018-11-01T09:55:22.032Z,48.70
2018-11-01T09:57:50.959Z,46.17
2018-11-01T10:00:19.862Z,42.63
2018-11-01T10:02:48.773Z,47.97
2018-11-01T10:05:17.766Z,47.93
2018-11-01T10:07:46.661Z,48.67
2018-11-01T10:10:15.567Z,51.47
2018-11-01T10:12:44.478Z,42.80
2018-11-01T10:15:14.115Z,44.10
2018-11-01T10:17:43.454Z,45.27
2018-11-01T10:20:13.568Z,46.57
2018-11-01T10:22:42.756Z,52.40
2018-11-01T10:25:13.289Z,46.67
2018-11-01T10:27:42.328Z,48.40
2018-11-01T10:30:14.295Z,45.27
2018-11-01T10:32:45.326Z,53.57
2018-11-01T10:35:14.803Z,46.00
2018-11-01T10:37:43.876Z,50.27
2018-11-01T10:40:15.088Z,53.17
2018-11-01T10:42:44.030Z,49.53
2018-11-01T10:45:12.895Z,48.27
2018-11-01T10:47:41.921Z,48.43
2018-11-01T10:50:14.088Z,44.00
2018-11-01T10:52:42.999Z,45.43
2018-11-01T10:55:13.051Z,39.10
2018-11-01T10:57:42.130Z,40.60
2018-11-01T11:00:17.286Z,39.73
2018-11-01T11:02:49.739Z,40.57
2018-11-01T11:05:19.930Z,36.10
2018-11-01T11:07:49.243Z,40.20
2018-11-01T11:10:18.463Z,39.43
2018-11-01T11:12:47.462Z,39.80
2018-11-01T11:15:16.378Z,44.30
2018-11-01T11:17:45.290Z,38.33
2018-11-01T11:20:16.732Z,35.63
2018-11-01T11:22:45.538Z,38.33
2018-11-01T11:25:14.597Z,40.90
2018-11-01T11:27:43.533Z,38.03
2018-11-01T11:30:13.257Z,42.60
2018-11-01T11:32:43.310Z,38.07
2018-11-01T11:35:12.626Z,43.77
2018-11-01T11:37:41.500Z,37.37
2018-11-01T11:40:11.746Z,36.83
2018-11-01T11:42:41.109Z,37.00
2018-11-01T11:45:11.422Z,38.57
2018-11-01T11:47:40.648Z,39.67
2018-11-01T11:50:11.015Z,35.10
2018-11-01T11:52:40.162Z,34.80
2018-11-01T11:55:09.635Z,33.07
2018-11-01T11:57:40.322Z,33.23
2018-11-01T12:00:13.649Z,35.85
2018-11-01T12:02:42.931Z,35.17
2018-11-01T12:05:11.862Z,35.47
2018-11-01T12:07:40.726Z,32.73
2018-11-01T12:10:11.662Z,36.77
2018-11-01T12:12:40.558Z,36.43
2018-11-01T12:15:09.735Z,34.70
2018-11-01T12:17:39.095Z,34.97
2018-11-01T12:20:09.941Z,38.00
2018-11-01T12:22:39.964Z,35.53
2018-11-01T12:25:09.410Z,32.47
2018-11-01T12:27:40.068Z,33.73
2018-11-01T12:30:10.634Z,37.73
2018-11-01T12:32:39.552Z,36.17
2018-11-01T12:35:10.477Z,39.80
2018-11-01T12:37:39.440Z,33.87
2018-11-01T12:40:10.124Z,32.67
2018-11-01T12:42:39.098Z,33.43
2018-11-01T12:45:09.440Z,39.07
2018-11-01T12:47:38.689Z,36.40
2018-11-01T12:50:09.838Z,35.50
2018-11-01T12:52:38.935Z,36.17
2018-11-01T12:55:07.981Z,39.57
2018-11-01T12:57:36.909Z,37.10
2018-11-01T13:00:06.645Z,39.80
2018-11-01T13:02:35.748Z,39.90
2018-11-01T13:05:04.861Z,36.50
2018-11-01T13:07:33.964Z,47.70
2018-11-01T13:10:04.113Z,40.93
2018-11-01T13:12:33.137Z,41.37
2018-11-01T13:15:02.088Z,40.53
2018-11-01T13:17:31.007Z,41.73
2018-11-01T13:19:59.886Z,40.47
2018-11-01T13:22:30.007Z,42.50
2018-11-01T13:24:58.934Z,40.37
2018-11-01T13:27:28.215Z,36.80
2018-11-01T13:29:58.406Z,39.00
2018-11-01T13:32:27.284Z,39.93
2018-11-01T13:34:57.711Z,38.63
2018-11-01T13:37:26.972Z,35.93
2018-11-01T13:39:56.006Z,39.53
2018-11-01T13:42:27.443Z,40.17
2018-11-01T13:44:56.351Z,40.07
2018-11-01T13:47:25.480Z,43.63
2018-11-01T13:49:54.555Z,43.03
2018-11-01T13:52:23.950Z,40.97
2018-11-01T13:54:52.911Z,44.80
2018-11-01T13:57:21.754Z,44.47
2018-11-01T13:59:50.627Z,41.90
2018-11-01T14:02:19.493Z,45.70
2018-11-01T14:04:54.942Z,46.23
2018-11-01T14:07:23.793Z,44.33
2018-11-01T14:09:52.747Z,47.33
2018-11-01T14:12:21.647Z,47.70
2018-11-01T14:14:50.835Z,43.50
2018-11-01T14:17:19.496Z,42.57
2018-11-01T14:19:48.390Z,47.13
2018-11-01T14:22:17.339Z,47.27
2018-11-01T14:24:46.303Z,42.73
2018-11-01T14:27:15.258Z,43.87
2018-11-01T14:29:44.120Z,42.23
2018-11-01T14:32:13.106Z,46.70
2018-11-01T14:34:41.983Z,43.30
2018-11-01T14:37:10.845Z,47.37
2018-11-01T14:39:39.723Z,53.03
2018-11-01T14:42:08.611Z,54.70
2018-11-01T14:44:37.653Z,45.67
2018-11-01T14:47:08.398Z,53.13
2018-11-01T14:49:37.315Z,55.00
2018-11-01T14:52:07.028Z,55.03
2018-11-01T14:54:36.332Z,54.10
2018-11-01T14:57:05.588Z,49.37
2018-11-01T14:59:35.465Z,50.70
2018-11-01T15:02:02.505Z,48.77
2018-11-01T15:04:31.424Z,58.33
2018-11-01T15:07:00.423Z,53.13
2018-11-01T15:09:29.299Z,48.97
2018-11-01T15:11:59.652Z,56.73
2018-11-01T15:14:28.627Z,52.30
2018-11-01T15:16:58.825Z,56.50
2018-11-01T15:19:27.709Z,63.90
2018-11-01T15:21:56.643Z,62.97
2018-11-01T15:24:25.644Z,62.47
2018-11-01T15:26:54.537Z,59.43
2018-11-01T15:29:23.430Z,65.77
2018-11-01T15:31:53.762Z,67.57
2018-11-01T15:34:22.654Z,57.77
2018-11-01T15:36:51.534Z,59.00
2018-11-01T15:39:20.499Z,59.00
2018-11-01T15:41:49.447Z,58.90
2018-11-01T15:44:18.310Z,58.40
2018-11-01T15:46:48.691Z,57.13
2018-11-01T15:49:17.586Z,57.90
2018-11-01T15:51:46.519Z,62.03
2018-11-01T15:54:15.498Z,56.57
2018-11-01T15:56:44.423Z,57.90
2018-11-01T15:59:13.402Z,48.60
2018-11-01T16:01:42.356Z,61.67
2018-11-01T16:04:11.265Z,53.33
2018-11-01T16:06:41.751Z,57.17
2018-11-01T16:09:12.364Z,56.63
2018-11-01T16:11:41.379Z,54.57
2018-11-01T16:14:13.371Z,56.90
2018-11-01T16:16:42.415Z,52.57
2018-11-01T16:19:11.704Z,55.67
2018-11-01T16:21:42.500Z,51.50
2018-11-01T16:24:16.908Z,49.97
2018-11-01T16:26:47.252Z,53.33
2018-11-01T16:29:16.130Z,51.50
2018-11-01T16:31:45.078Z,54.97
2018-11-01T16:34:14.043Z,60.53
2018-11-01T16:36:43.261Z,76.10
2018-11-01T16:39:12.903Z,52.23
2018-11-01T16:41:43.076Z,53.43
2018-11-01T16:44:12.259Z,62.93
2018-11-01T16:46:41.118Z,60.10
2018-11-01T16:49:10.809Z,50.47
2018-11-01T16:51:39.799Z,51.53
2018-11-01T16:54:10.031Z,50.67
2018-11-01T16:56:38.934Z,52.23
2018-11-01T16:59:07.866Z,51.47
2018-11-01T17:01:38.280Z,46.53
2018-11-01T17:04:07.783Z,56.07
2018-11-01T17:06:36.666Z,48.87
2018-11-01T17:09:11.108Z,53.07
2018-11-01T17:11:40.356Z,53.97
2018-11-01T17:14:09.276Z,50.47
2018-11-01T17:16:39.909Z,51.77
2018-11-01T17:19:09.434Z,46.60
2018-11-01T17:21:38.730Z,48.60
2018-11-01T17:24:07.960Z,46.10
2018-11-01T17:26:37.108Z,46.83
2018-11-01T17:29:06.291Z,44.77
2018-11-01T17:31:35.301Z,50.73
2018-11-01T17:34:04.345Z,45.30
2018-11-01T17:36:33.182Z,42.70
2018-11-01T17:39:02.288Z,45.47
2018-11-01T17:41:31.122Z,43.35
2018-11-01T17:44:00.080Z,42.70
2018-11-01T17:46:28.988Z,37.87
2018-11-01T17:48:57.932Z,37.80
2018-11-01T17:51:26.893Z,37.90
2018-11-01T17:53:57.115Z,38.33
2018-11-01T17:56:26.105Z,41.17
2018-11-01T17:58:55.135Z,37.20
2018-11-01T18:01:24.050Z,35.20
2018-11-01T18:03:52.931Z,39.07
2018-11-01T18:06:21.840Z,41.73
2018-11-01T18:08:50.814Z,39.73
2018-11-01T18:11:19.699Z,49.93
2018-11-01T18:13:48.683Z,52.40
2018-11-01T18:16:17.624Z,46.60
2018-11-01T18:18:46.679Z,56.47
2018-11-01T18:21:15.705Z,85.13
2018-11-01T18:23:44.863Z,74.67
2018-11-01T18:26:13.812Z,135.70
2018-11-01T18:28:42.719Z,86.83
2018-11-01T18:31:11.669Z,42.83
2018-11-01T18:33:40.543Z,34.87
2018-11-01T18:36:09.431Z,34.07
2018-11-01T18:38:38.390Z,36.40
2018-11-01T18:41:07.434Z,34.80
2018-11-01T18:43:36.390Z,35.73
2018-11-01T18:46:05.432Z,36.73
2018-11-01T18:48:34.591Z,32.87
2018-11-01T18:51:03.557Z,33.07
2018-11-01T18:53:32.485Z,33.00
2018-11-01T18:56:02.739Z,35.65
2018-11-01T18:58:31.651Z,34.00
2018-11-01T19:01:00.617Z,36.67
2018-11-01T19:03:30.126Z,33.47
2018-11-01T19:05:59.957Z,32.00
2018-11-01T19:08:29.227Z,30.37
2018-11-01T19:10:59.344Z,34.67
2018-11-01T19:13:28.313Z,32.13
2018-11-01T19:15:57.230Z,30.63
2018-11-01T19:18:26.242Z,35.40
2018-11-01T19:20:55.174Z,35.58
2018-11-01T19:23:24.127Z,29.53
2018-11-01T19:25:53.047Z,33.57
2018-11-01T19:28:21.967Z,30.40
2018-11-01T19:30:50.923Z,30.87
2018-11-01T19:33:19.855Z,32.30
2018-11-01T19:35:48.701Z,34.67
2018-11-01T19:38:19.219Z,31.70
2018-11-01T19:40:48.145Z,35.60
2018-11-01T19:43:17.041Z,32.57
2018-11-01T19:45:46.004Z,38.10
2018-11-01T19:48:15.008Z,37.43
2018-11-01T19:50:43.863Z,36.50
2018-11-01T19:53:12.825Z,33.07
2018-11-01T19:55:41.817Z,36.23
2018-11-01T19:58:10.790Z,32.80
2018-11-01T20:00:39.710Z,32.93
2018-11-01T20:03:08.595Z,39.37
2018-11-01T20:05:37.610Z,41.47
2018-11-01T20:08:07.046Z,37.93
2018-11-01T20:10:35.903Z,36.37
2018-11-01T20:13:04.856Z,36.37
2018-11-01T20:15:33.872Z,36.83
2018-11-01T20:18:02.771Z,35.57
2018-11-01T20:20:33.083Z,35.50
2018-11-01T20:23:02.010Z,33.97
2018-11-01T20:25:30.922Z,37.33
2018-11-01T20:27:59.932Z,36.30
2018-11-01T20:30:28.774Z,38.40
2018-11-01T20:32:57.727Z,38.03
2018-11-01T20:35:28.076Z,37.27
2018-11-01T20:37:57.069Z,38.77
2018-11-01T20:40:25.942Z,39.10
2018-11-01T20:42:56.228Z,38.63
2018-11-01T20:45:25.119Z,39.17
2018-11-01T20:47:53.975Z,41.60
2018-11-01T20:50:22.943Z,37.83
2018-11-01T20:52:51.725Z,46.73
2018-11-01T20:55:20.657Z,36.67
2018-11-01T20:57:49.708Z,42.53
2018-11-01T21:00:18.571Z,40.27
2018-11-01T21:02:47.471Z,39.77
2018-11-01T21:05:16.399Z,40.50
2018-11-01T21:07:45.403Z,39.60
2018-11-01T21:10:14.365Z,44.03
2018-11-01T21:12:43.302Z,43.47
2018-11-01T21:15:13.660Z,40.50
2018-11-01T21:17:42.615Z,41.00
2018-11-01T21:20:11.603Z,45.13
2018-11-01T21:22:40.737Z,42.83
2018-11-01T21:25:10.945Z,42.53
2018-11-01T21:27:39.924Z,44.13
2018-11-01T21:30:09.620Z,42.00
2018-11-01T21:32:38.510Z,39.37
2018-11-01T21:35:07.872Z,40.57
2018-11-01T21:37:36.740Z,40.97
2018-11-01T21:40:07.418Z,41.10
2018-11-01T21:42:36.513Z,40.87
2018-11-01T21:45:07.167Z,44.57
2018-11-01T21:47:36.247Z,37.80
2018-11-01T21:50:05.201Z,39.97
2018-11-01T21:52:34.070Z,39.83
2018-11-01T21:55:04.403Z,40.30
2018-11-01T21:57:33.342Z,42.77
2018-11-01T22:00:02.553Z,41.07
2018-11-01T22:02:31.679Z,42.87
2018-11-01T22:05:00.580Z,43.13
2018-11-01T22:07:29.511Z,37.50
2018-11-01T22:09:59.723Z,38.37
2018-11-01T22:12:28.606Z,32.73
2018-11-01T22:14:57.508Z,40.90
2018-11-01T22:17:26.462Z,35.87
2018-11-01T22:19:55.399Z,41.07
2018-11-01T22:22:24.374Z,38.70
2018-11-01T22:24:53.391Z,35.03
2018-11-01T22:27:22.296Z,37.10
2018-11-01T22:29:51.155Z,40.50
2018-11-01T22:32:21.374Z,41.53
2018-11-01T22:34:50.287Z,41.70
2018-11-01T22:37:24.544Z,40.63
2018-11-01T22:39:53.943Z,40.37
2018-11-01T22:42:22.786Z,43.63
2018-11-01T22:44:51.683Z,43.90
2018-11-01T22:47:20.684Z,44.70
2018-11-01T22:49:49.506Z,34.00
2018-11-01T22:52:18.365Z,39.87
2018-11-01T22:54:47.286Z,37.73
2018-11-01T22:57:16.164Z,35.63
2018-11-01T22:59:45.097Z,33.10
2018-11-01T23:02:14.067Z,35.43
2018-11-01T23:04:42.923Z,38.10
2018-11-01T23:07:11.731Z,39.00
2018-11-01T23:09:40.583Z,36.10
2018-11-01T23:12:09.419Z,31.63
2018-11-01T23:14:38.375Z,31.00
2018-11-01T23:17:07.286Z,33.37
2018-11-01T23:19:36.090Z,31.10
2018-11-01T23:22:04.933Z,35.87
2018-11-01T23:24:33.775Z,37.13
2018-11-01T23:27:02.658Z,32.17
2018-11-01T23:29:31.563Z,34.20
2018-11-01T23:32:00.469Z,38.27
2018-11-01T23:34:29.334Z,30.93
2018-11-01T23:37:03.303Z,32.73
2018-11-01T23:39:37.202Z,33.23
2018-11-01T23:42:11.347Z,30.33
2018-11-01T23:44:45.343Z,32.80
2018-11-01T23:47:19.276Z,31.10
2018-11-01T23:49:53.342Z,31.70
2018-11-01T23:52:23.230Z,33.03
2018-11-01T23:54:52.494Z,31.83
2018-11-01T23:57:21.366Z,34.97
2018-11-01T23:59:50.475Z,35.37
